Hubbard, Texas
Current Conditions -  °F | °C
As of 6:53 PM on Friday 24 Oct 2014 (Local Time) from KCNW Reporting Station
Clear Clear  
Wind Chill: 75°   Ceiling: Unl
Heat Index: 75°   Visibility: 10mi
Dew Point: 63°   Wind: 3mph
Humidity: 65%   Direction: 140°SE
Pressure: 30.08"   Gusts: NA
Location:  31.85°N, 96.8°W
Report Text: KCNW 242353Z 14003KT 10SM SKC 24/17 A3008
Loading
Personal Weather Stations






























Interactive Weather Map
Tropical Storm Tracking
New forecast layout! Learn more

10-Day Weather Forecast

Advertisements
Track Severe Weather on mobile